Startpagina
METAR-TAF:

METAR-TAF

Vliegvelden :

Militair vliegvled

Meppen, Duitsland

breedte: 52-43-24N, lengte: 007-19-35E, hoogte: 21 m

Actueel weer

Dit bericht is 1 uur en het 9 minuten geleden gemaakt, om 18:20 UTC
Wind 5 kt uit het zuidwesten
Temperatuur 6°C
Vochtigheid 93%
Druk 1020 hPa
Zicht 10 km of meer

METAR: ETWM 171820Z AUTO 22005KT 9999 // ////// 06/05 Q1020 ///

Tijdstip: 20:29 (19:29 UTC)


TAF: ontbreekt

Waarnemingen en weersverwachtingen van meer dan 4000 vliegvelden (METAR en TAF).

De beschikbare stations zijn de gele en rode punten op de kaart.

Ga met uw muis naar het station om de naam te zien.

Klik dan om waarnemingen en weersverwachtingen te zien.

kaart wijzigen: klik op de groene knoppen met een zwart kruis om in te zoomen, op de groene knop met een streepje om uit te zoomen of op de groene pijlen voor aangrenzende kaarten.


METAR-TAF: